Estación Meteorológica Peña el Pijo (Robertgarden) [ 02/03/23 03:00:08 CET ]

Fecha Hora Presion(HPa) Temp (°C) Humedad % Rocio (°C) Viento ( m/s) Direccion Lluvia 1Hora(mm) Lluvia 24H(mm) LLuvia Total(mm)
2010-Nov-07 01:01:13 1010.600 3.6 84 1.1         0.00
2010-Nov-07 02:03:11 1009.500 3.3 86 1.2         0.00
2010-Nov-07 03:01:13 1008.300 3.5 87 1.5         0.00
2010-Nov-07 04:01:20 1007.700 4.1 88 2.3         0.00
2010-Nov-07 05:01:13 1006.800 4.1 89 2.4         0.00
2010-Nov-07 06:01:21 1006.300 4.5 90 3.0         0.00
2010-Nov-07 07:01:17 1005.600 5.2 90 3.7         0.00
2010-Nov-07 08:01:16 1005.300 5.5 91 4.0         0.00
2010-Nov-07 09:01:13 1005.000 9.4 88 7.6         0.00
2010-Nov-07 10:01:12 1004.900 11.5 76 7.4         0.00
2010-Nov-07 11:01:15 1004.700 12.1 67 6.1         0.00
2010-Nov-07 12:01:12 1003.800 12.2 65 5.8         0.00
2010-Nov-07 13:01:12 1002.700 16.1 51 6.0         0.00
2010-Nov-07 14:01:12 1001.400 18.4 41 4.9         0.00
2010-Nov-07 15:01:16 1000.700 18.8 38 4.1         0.00
2010-Nov-07 16:01:14 1000.300 14.3 45 2.5         0.00
2010-Nov-07 17:01:22 1000.400 13.0 47 1.9         0.00
2010-Nov-07 18:01:14 1000.300 11.2 55 2.4         0.00
2010-Nov-07 19:01:14 1000.800 9.6 61 2.5         0.00
2010-Nov-07 20:01:13 1001.200 9.6 66 3.5         0.00
2010-Nov-07 21:01:17 1001.200 9.7 68 4.1         0.00
2010-Nov-07 22:01:14 1001.100 9.4 71 4.4         0.00
2010-Nov-07 23:01:14 1001.000 8.6 79 5.2         0.00

Temperatura Máxima:18°    Temperatura Mínima:
Presión Máxima:1010.600 Hpa    Presión Mínima:1000.300 Hpa


Volver